Time;durP1;ratioP1;P1;durP2;ratioP2;P2;SDS_P1;SDS_P2;PMS_P1;PMS_P2;Temp;Humidity;BMP_temperature;BMP_pressure;BME280_temperature;BME280_humidity;BME280_pressure;Samples;Min_cycle;Max_cycle;Signal;HPM_P1;HPM_P2
2024/04/15 00:01:09;;;;;;;5.75;0.25;;;;;;;3.83;51.98;101404.69;5376506;26;20078;-73
2024/04/15 00:03:39;;;;;;;2.88;0.50;;;;;;;3.82;52.14;101393.50;5388891;26;20815;-74
2024/04/15 00:06:10;;;;;;;3.08;0.55;;;;;;;3.75;51.88;101397.84;5363768;26;19998;-73
2024/04/15 00:08:38;;;;;;;3.15;0.30;;;;;;;3.71;51.90;101393.53;5369706;26;20018;-74
2024/04/15 00:11:10;;;;;;;6.32;0.43;;;;;;;3.61;52.45;101389.28;5364816;26;20003;-73
2024/04/15 00:13:50;;;;;;;3.97;0.82;;;;;;;3.57;52.28;101385.81;5372749;26;19998;-73
2024/04/15 00:16:21;;;;;;;6.28;0.60;;;;;;;3.52;52.40;101377.22;5398098;26;20010;-73
2024/04/15 00:19:05;;;;;;;;;;;;;;;;;;;;;
2024/04/15 00:21:40;;;;;;;7.28;0.70;;;;;;;3.43;53.18;101384.16;5392839;26;20032;-74
2024/04/15 00:24:10;;;;;;;5.82;0.50;;;;;;;3.18;54.08;101376.41;5376504;26;19999;-73
2024/04/15 00:26:43;;;;;;;6.50;0.50;;;;;;;3.14;54.42;101372.97;5367175;26;20082;-73
2024/04/15 00:29:16;;;;;;;7.72;0.32;;;;;;;3.23;53.67;101366.94;5365386;26;20002;-74
2024/04/15 00:31:44;;;;;;;5.88;0.47;;;;;;;3.37;52.99;101364.34;5391878;26;19999;-72
2024/04/15 00:34:13;;;;;;;8.73;0.60;;;;;;;3.26;53.13;101356.56;5355653;26;20039;-72
2024/04/15 00:36:54;;;;;;;4.40;0.55;;;;;;;3.17;53.11;101356.59;5388605;26;20040;-72
2024/04/15 00:39:47;;;;;;;6.25;0.88;;;;;;;2.97;53.99;101349.72;5332258;26;20331;-72
2024/04/15 00:42:39;;;;;;;4.53;0.30;;;;;;;3.09;53.99;101354.03;5381182;26;20017;-72
2024/04/15 00:45:28;;;;;;;6.63;0.30;;;;;;;3.00;54.26;101356.59;5378544;26;20440;-71
2024/04/15 00:47:59;;;;;;;6.95;1.08;;;;;;;3.08;53.89;101357.47;5385046;25;20461;-74
2024/04/15 00:50:39;;;;;;;3.40;1.08;;;;;;;3.12;54.07;101359.19;5375006;26;20009;-72
2024/04/15 00:53:26;;;;;;;;;;;;;;;;;;;;;
2024/04/15 00:56:00;;;;;;;12.63;1.10;;;;;;;2.90;53.80;101367.81;5340349;26;20044;-71
2024/04/15 00:58:36;;;;;;;11.43;0.93;;;;;;;2.84;53.92;101362.63;5364437;26;20094;-74
2024/04/15 01:01:07;;;;;;;5.97;0.30;;;;;;;2.84;54.21;101363.50;5394310;26;20003;-73
2024/04/15 01:03:35;;;;;;;8.23;1.13;;;;;;;2.80;54.22;101366.97;5384583;26;20003;-72
2024/04/15 01:06:06;;;;;;;7.88;0.60;;;;;;;2.79;54.17;101364.38;5357318;26;20086;-72
2024/04/15 01:08:34;;;;;;;6.35;0.50;;;;;;;2.84;54.02;101348.00;5364329;26;20139;-73
2024/04/15 01:11:13;;;;;;;4.72;0.70;;;;;;;2.77;54.03;101360.03;5350232;26;20006;-74
2024/04/15 01:13:41;;;;;;;7.03;0.80;;;;;;;2.84;54.10;101344.56;5358613;25;20000;-72
2024/04/15 01:16:15;;;;;;;4.80;0.70;;;;;;;2.79;54.25;101354.03;5371467;26;20003;-72
2024/04/15 01:18:46;;;;;;;3.17;0.98;;;;;;;2.71;54.29;101348.84;5378874;26;20112;-72
2024/04/15 01:21:21;;;;;;;8.15;0.73;;;;;;;2.71;54.08;101336.84;5392369;26;20163;-72
2024/04/15 01:23:59;;;;;;;6.93;0.65;;;;;;;2.59;54.22;101333.38;5376267;26;20065;-72
2024/04/15 01:26:29;;;;;;;5.68;0.95;;;;;;;2.47;54.46;101331.66;5391502;26;20445;-73
2024/04/15 01:29:02;;;;;;;10.77;1.05;;;;;;;2.38;54.93;101322.19;5375699;26;20556;-72
2024/04/15 01:31:40;;;;;;;6.07;0.57;;;;;;;2.36;55.25;101316.16;5379086;26;20441;-74
2024/04/15 01:34:24;;;;;;;15.65;1.08;;;;;;;2.24;55.44;101314.44;5369518;26;20031;-74
2024/04/15 01:37:10;;;;;;;4.55;0.95;;;;;;;2.22;55.58;101308.41;5381632;26;20015;-75
2024/04/15 01:39:50;;;;;;;7.30;0.50;;;;;;;2.35;55.10;101304.09;5398294;26;20700;-72
2024/04/15 01:42:18;;;;;;;5.78;0.65;;;;;;;2.47;54.96;101290.38;5344247;26;20000;-68
2024/04/15 01:44:50;;;;;;;4.65;0.70;;;;;;;2.58;54.46;101301.56;5369822;25;20539;-68
2024/04/15 01:47:44;;;;;;;3.75;0.47;;;;;;;2.56;54.57;101290.38;5384338;26;20007;-68
2024/04/15 01:50:16;;;;;;;4.15;0.65;;;;;;;2.54;54.30;101284.34;5394369;26;23172;-68
2024/04/15 01:52:47;;;;;;;7.97;0.47;;;;;;;2.58;54.61;101293.81;5366272;25;20021;-67
2024/04/15 01:55:18;;;;;;;8.40;0.88;;;;;;;2.46;54.88;101288.63;5390801;26;20043;-69
2024/04/15 01:57:52;;;;;;;4.85;0.95;;;;;;;2.54;54.52;101286.94;5401106;26;20010;-71
2024/04/15 02:00:24;;;;;;;5.22;0.47;;;;;;;2.44;54.53;101280.03;5397232;26;20015;-73
2024/04/15 02:02:51;;;;;;;7.68;0.95;;;;;;;2.38;54.85;101277.44;5388461;26;20026;-70
2024/04/15 02:05:24;;;;;;;5.63;0.80;;;;;;;2.21;55.26;101262.81;5389458;26;20010;-71
2024/04/15 02:08:01;;;;;;;12.15;1.75;;;;;;;2.10;55.54;101255.06;5342938;26;20003;-71
2024/04/15 02:10:29;;;;;;;6.35;0.98;;;;;;;2.07;55.73;101252.50;5377500;26;20341;-71
2024/04/15 02:13:04;;;;;;;11.60;0.98;;;;;;;2.03;56.24;101252.50;5374464;25;20509;-71
2024/04/15 02:15:42;;;;;;;;;;;;;;;;;;;;;
2024/04/15 02:18:38;;;;;;;1.98;0.70;;;;;;;2.18;56.08;101247.38;5333204;25;20566;-71
2024/04/15 02:21:10;;;;;;;6.10;1.00;;;;;;;2.32;55.67;101230.16;5351072;26;20012;-72
2024/04/15 02:23:35;;;;;;;6.15;0.88;;;;;;;2.28;55.41;101227.59;5333730;26;20353;-71
2024/04/15 02:26:10;;;;;;;9.30;0.82;;;;;;;2.18;55.74;101221.56;5315558;26;20520;-72
2024/04/15 02:28:48;;;;;;;6.78;0.95;;;;;;;2.09;56.12;101211.25;5329128;26;20471;-70
2024/04/15 02:31:19;;;;;;;9.98;0.88;;;;;;;2.20;55.75;101209.53;5342827;26;20022;-73
2024/04/15 02:33:51;;;;;;;1.80;0.68;;;;;;;2.25;55.42;101210.41;5329919;26;20022;-71
2024/04/15 02:36:16;;;;;;;6.53;0.95;;;;;;;2.14;55.73;101201.78;5380508;26;20063;-73
2024/04/15 02:38:44;;;;;;;4.00;0.90;;;;;;;2.07;56.13;101200.94;5364121;26;20012;-72
2024/04/15 02:41:13;;;;;;;6.82;1.15;;;;;;;2.04;56.15;101198.38;5343558;26;20133;-71
2024/04/15 02:43:38;;;;;;;15.52;1.35;;;;;;;2.12;55.71;101200.94;5387904;26;20021;-71
2024/04/15 02:46:03;;;;;;;4.07;1.20;;;;;;;2.11;55.66;101191.50;5390410;26;20083;-70
2024/04/15 02:48:31;;;;;;;6.70;0.65;;;;;;;2.10;55.86;101192.34;5388460;25;20822;-71
2024/04/15 02:51:02;;;;;;;7.70;1.02;;;;;;;2.16;56.05;101194.91;5395629;26;20428;-70
2024/04/15 02:53:31;;;;;;;8.18;1.05;;;;;;;2.27;55.95;101185.47;5397400;26;20014;-70
2024/04/15 02:56:00;;;;;;;11.10;0.80;;;;;;;2.21;55.82;101184.59;5388221;26;19994;-70
2024/04/15 02:58:30;;;;;;;9.02;0.93;;;;;;;2.14;55.37;101183.75;5389662;26;20133;-70
2024/04/15 03:00:58;;;;;;;6.35;1.38;;;;;;;1.94;55.87;101176.00;5394869;26;19995;-70
2024/04/15 03:03:29;;;;;;;6.80;1.20;;;;;;;1.86;56.01;101160.53;5382422;26;20003;-72
2024/04/15 03:05:54;;;;;;;4.00;0.98;;;;;;;1.78;56.12;101154.50;5385237;26;20458;-70
2024/04/15 03:08:20;;;;;;;5.53;0.98;;;;;;;1.74;56.33;101152.78;5354889;26;20780;-75
2024/04/15 03:10:45;;;;;;;7.28;1.05;;;;;;;1.76;56.12;101139.91;5340491;26;20015;-75
2024/04/15 03:13:18;;;;;;;5.57;1.58;;;;;;;1.81;56.31;101138.19;5347475;26;20044;-75
2024/04/15 03:15:52;;;;;;;7.80;1.08;;;;;;;1.72;56.40;101123.56;5335125;26;20843;-75
2024/04/15 03:18:17;;;;;;;10.50;1.17;;;;;;;1.65;56.51;101129.59;5318174;26;20591;-76
2024/04/15 03:20:43;;;;;;;6.38;1.10;;;;;;;1.64;56.81;101121.00;5371703;26;20050;-76
2024/04/15 03:23:08;;;;;;;6.47;1.67;;;;;;;1.61;56.81;101115.81;5340733;26;20481;-77
2024/04/15 03:25:37;;;;;;;7.13;1.27;;;;;;;1.61;56.58;101120.13;5323947;26;20602;-71
2024/04/15 03:28:08;;;;;;;4.60;1.30;;;;;;;1.61;57.03;101112.41;5333017;26;20051;-70
2024/04/15 03:30:34;;;;;;;6.10;0.95;;;;;;;1.67;56.84;101104.69;5362274;26;20019;-70
2024/04/15 03:33:04;;;;;;;8.38;0.90;;;;;;;1.64;56.68;101109.81;5358170;26;20010;-71
2024/04/15 03:35:29;;;;;;;4.32;1.40;;;;;;;1.60;56.72;101097.81;5349785;26;20010;-69
2024/04/15 03:37:57;;;;;;;6.68;1.10;;;;;;;1.59;57.08;101096.94;5350874;26;20761;-73
2024/04/15 03:40:23;;;;;;;6.22;1.02;;;;;;;1.67;56.72;101100.38;5384467;26;20010;-71
2024/04/15 03:42:50;;;;;;;6.35;1.10;;;;;;;1.78;56.50;101096.97;5380576;26;20006;-71
2024/04/15 03:45:16;;;;;;;5.85;0.60;;;;;;;1.88;56.17;101099.50;5328627;26;20031;-71
2024/04/15 03:47:42;;;;;;;3.70;1.30;;;;;;;1.87;56.16;101102.97;5347614;26;20065;-71
2024/04/15 03:50:07;;;;;;;8.50;1.10;;;;;;;1.88;55.97;101094.34;5347990;26;20085;-70
2024/04/15 03:52:33;;;;;;;10.75;1.13;;;;;;;1.78;56.04;101082.34;5357622;26;20026;-76
2024/04/15 03:55:04;;;;;;;3.30;0.70;;;;;;;1.72;56.12;101077.19;5384617;26;20848;-71
2024/04/15 03:57:32;;;;;;;8.27;1.25;;;;;;;1.63;56.37;101061.72;5383029;26;20026;-73
2024/04/15 03:59:57;;;;;;;6.10;1.50;;;;;;;1.60;56.58;101059.16;5385837;26;20862;-73
2024/04/15 04:02:23;;;;;;;8.77;1.33;;;;;;;1.59;56.59;101053.13;5381301;26;19999;-74
2024/04/15 04:04:48;;;;;;;10.25;1.17;;;;;;;1.58;56.57;101048.84;5393852;26;20460;-72
2024/04/15 04:07:14;;;;;;;6.20;1.00;;;;;;;1.62;56.55;101050.56;5382515;26;20464;-71
2024/04/15 04:09:42;;;;;;;7.80;2.30;;;;;;;1.65;56.69;101049.72;5357333;26;20011;-72
2024/04/15 04:12:08;;;;;;;7.97;1.67;;;;;;;1.64;56.78;101037.66;5322909;26;20343;-73
2024/04/15 04:14:34;;;;;;;8.20;1.40;;;;;;;1.65;57.40;101036.81;5394873;26;20079;-73
2024/04/15 04:17:03;;;;;;;4.80;1.20;;;;;;;1.72;57.19;101036.81;5396728;26;20006;-72
2024/04/15 04:19:32;;;;;;;;;;;;;;;1.84;57.22;101029.91;5388321;26;19999;-75
2024/04/15 04:21:57;;;;;;;11.05;1.85;;;;;;;1.98;56.70;101017.88;5393667;26;20001;-73
2024/04/15 04:24:33;;;;;;;;;;;;;;;;;;;;;
2024/04/15 04:27:01;;;;;;;3.22;1.00;;;;;;;2.08;56.63;101018.72;5399871;26;19994;-74
2024/04/15 04:29:27;;;;;;;7.57;1.63;;;;;;;2.12;56.51;101020.44;5390238;26;20130;-72
2024/04/15 04:31:52;;;;;;;5.75;1.95;;;;;;;2.12;56.58;101021.28;5405709;26;20007;-73
2024/04/15 04:34:17;;;;;;;7.57;2.10;;;;;;;2.13;56.61;101014.41;5335638;26;20124;-72
2024/04/15 04:36:43;;;;;;;9.73;2.15;;;;;;;2.23;56.62;101003.19;5357789;26;20014;-72
2024/04/15 04:39:11;;;;;;;5.57;1.50;;;;;;;2.39;56.96;101008.31;5335975;26;20008;-72
2024/04/15 04:41:39;;;;;;;9.25;2.22;;;;;;;2.52;56.25;100994.50;5358233;26;19997;-75
2024/04/15 04:44:04;;;;;;;8.02;1.27;;;;;;;2.67;56.04;100989.25;5384584;26;20034;-74
2024/04/15 04:46:30;;;;;;;3.70;1.27;;;;;;;2.84;55.84;100985.72;5349185;26;20049;-74
2024/04/15 04:48:58;;;;;;;5.43;1.30;;;;;;;2.98;55.58;100979.63;5363395;26;19999;-71
2024/04/15 04:51:25;;;;;;;5.13;2.10;;;;;;;3.14;54.85;100980.34;5345237;26;20018;-74
2024/04/15 04:53:50;;;;;;;12.40;1.40;;;;;;;3.30;55.17;100977.69;5320687;26;20019;-76
2024/04/15 04:56:16;;;;;;;4.20;0.93;;;;;;;3.40;54.47;100966.41;5337081;26;22160;-76
2024/04/15 04:58:44;;;;;;;5.25;1.30;;;;;;;3.56;54.27;100961.94;5384968;26;19994;-73
2024/04/15 05:01:14;;;;;;;2.00;0.90;;;;;;;3.53;54.09;100960.25;5386648;26;20016;-73
2024/04/15 05:03:42;;;;;;;8.80;1.20;;;;;;;3.53;54.25;100960.25;5396445;26;20009;-71
2024/04/15 05:06:12;;;;;;;3.10;1.20;;;;;;;3.65;54.10;100951.53;5380945;26;20015;-71
2024/04/15 05:08:41;;;;;;;12.57;1.90;;;;;;;3.68;54.27;100958.41;5377596;26;20230;-73
2024/04/15 05:11:07;;;;;;;5.65;1.10;;;;;;;3.83;54.15;100945.31;5402094;26;19999;-73
2024/04/15 05:13:36;;;;;;;9.15;0.85;;;;;;;4.04;53.99;100945.94;5368270;26;20442;-74
2024/04/15 05:16:06;;;;;;;5.25;1.10;;;;;;;4.10;53.21;100933.81;5391817;26;20007;-71
2024/04/15 05:18:36;;;;;;;9.95;1.30;;;;;;;4.11;53.87;100929.47;5388007;26;20014;-71
2024/04/15 05:21:05;;;;;;;13.07;1.55;;;;;;;3.84;54.10;100933.25;5363407;26;20042;-70
2024/04/15 05:23:31;;;;;;;4.28;1.38;;;;;;;3.59;55.17;100925.75;5382121;25;20386;-73
2024/04/15 05:26:00;;;;;;;5.97;0.90;;;;;;;3.64;54.46;100928.28;5392222;26;20003;-70
2024/04/15 05:28:30;;;;;;;8.82;1.38;;;;;;;3.97;54.01;100921.88;5380785;26;20010;-68
2024/04/15 05:30:56;;;;;;;8.55;1.08;;;;;;;4.34;53.48;100905.88;5392524;26;20000;-69
2024/04/15 05:33:25;;;;;;;3.92;1.05;;;;;;;4.37;53.45;100898.09;5382246;26;20014;-68
2024/04/15 05:35:50;;;;;;;3.13;0.82;;;;;;;4.45;53.30;100896.25;5391118;26;20007;-68
2024/04/15 05:38:16;;;;;;;2.75;0.98;;;;;;;4.79;52.37;100885.41;5370625;26;20109;-68
2024/04/15 05:40:45;;;;;;;7.80;1.05;;;;;;;4.78;51.89;100876.75;5360574;26;20004;-70
2024/04/15 05:43:12;;;;;;;2.85;1.10;;;;;;;4.78;52.31;100874.19;5348890;26;21567;-68
2024/04/15 05:45:39;;;;;;;5.45;1.15;;;;;;;5.23;51.12;100874.34;5356042;26;20019;-68
2024/04/15 05:48:08;;;;;;;4.82;1.15;;;;;;;5.47;51.07;100861.81;5342156;26;20575;-70
2024/04/15 05:50:36;;;;;;;4.78;0.90;;;;;;;5.61;50.71;100857.22;5343784;26;20004;-68
2024/04/15 05:53:04;;;;;;;6.25;1.58;;;;;;;6.00;50.05;100854.69;5334979;26;20022;-69
2024/04/15 05:55:29;;;;;;;3.22;0.60;;;;;;;6.34;48.97;100847.94;5331851;26;20501;-70
2024/04/15 05:57:55;;;;;;;5.32;0.95;;;;;;;6.29;48.17;100843.69;5359014;26;20015;-71
2024/04/15 06:00:21;;;;;;;5.05;0.73;;;;;;;6.17;48.61;100838.78;5335716;26;20011;-68
2024/04/15 06:02:52;;;;;;;7.43;1.02;;;;;;;5.93;49.29;100834.09;5329695;26;20026;-68
2024/04/15 06:05:19;;;;;;;10.90;1.27;;;;;;;5.30;51.20;100838.81;5347905;26;19999;-68
2024/04/15 06:07:45;;;;;;;2.40;0.60;;;;;;;5.06;51.33;100829.72;5353701;26;20539;-70
2024/04/15 06:10:15;;;;;;;3.28;0.80;;;;;;;5.21;51.66;100829.47;5344477;26;20292;-67
2024/04/15 06:12:41;;;;;;;9.68;2.15;;;;;;;4.94;51.87;100822.16;5352691;26;20720;-69
2024/04/15 06:15:06;;;;;;;10.57;1.65;;;;;;;5.30;51.94;100822.38;5324186;26;20117;-71
2024/04/15 06:17:32;;;;;;;8.88;1.75;;;;;;;4.91;51.75;100804.09;5348213;26;20015;-70
2024/04/15 06:20:00;;;;;;;7.13;1.15;;;;;;;4.88;52.86;100810.19;5351535;26;20069;-70
2024/04/15 06:22:26;;;;;;;2.90;0.80;;;;;;;5.45;51.06;100802.19;5350225;26;20841;-70
2024/04/15 06:24:52;;;;;;;7.82;1.08;;;;;;;6.25;49.73;100797.06;5382059;26;20010;-70
2024/04/15 06:27:18;;;;;;;4.20;0.65;;;;;;;6.95;48.69;100797.09;5378016;26;20748;-69
2024/04/15 06:29:44;;;;;;;6.35;0.93;;;;;;;7.92;46.09;100794.41;5362238;26;20008;-68
2024/04/15 06:32:09;;;;;;;3.55;0.80;;;;;;;9.71;42.93;100786.66;5381804;26;20018;-69
2024/04/15 06:34:35;;;;;;;3.75;0.90;;;;;;;11.04;39.99;100786.56;5336750;26;20015;-69
2024/04/15 06:37:00;;;;;;;5.43;0.60;;;;;;;10.15;39.84;100784.97;5329192;26;20038;-70
2024/04/15 06:39:28;;;;;;;5.38;0.70;;;;;;;10.90;38.70;100781.03;5342130;26;20017;-70
2024/04/15 06:41:55;;;;;;;5.53;1.10;;;;;;;10.68;39.45;100777.63;5388801;26;20444;-69
2024/04/15 06:44:20;;;;;;;3.50;1.48;;;;;;;9.19;42.21;100774.63;5379476;26;20018;-68
2024/04/15 06:46:46;;;;;;;5.55;0.93;;;;;;;8.44;43.73;100774.53;5383682;26;20653;-68
2024/04/15 06:49:14;;;;;;;3.88;0.75;;;;;;;7.39;45.74;100760.38;5384100;26;20516;-69
2024/04/15 06:51:40;;;;;;;3.33;0.60;;;;;;;7.20;47.19;100758.31;5383627;26;20007;-70
2024/04/15 06:54:08;;;;;;;2.72;0.60;;;;;;;7.26;47.87;100752.91;5389708;26;20709;-68
2024/04/15 06:56:34;;;;;;;7.80;0.82;;;;;;;7.27;48.01;100746.84;5387723;26;20006;-68
2024/04/15 06:59:00;;;;;;;4.63;0.55;;;;;;;7.52;46.49;100730.53;5384639;26;20029;-68
2024/04/15 07:01:26;;;;;;;6.53;1.23;;;;;;;8.03;45.90;100727.28;5381235;26;20452;-69
2024/04/15 07:03:52;;;;;;;7.43;0.80;;;;;;;9.40;43.29;100718.22;5389425;26;20007;-68
2024/04/15 07:06:18;;;;;;;6.50;1.02;;;;;;;10.45;41.45;100710.63;5380544;26;20011;-68
2024/04/15 07:08:44;;;;;;;4.32;0.95;;;;;;;11.78;38.60;100704.72;5374051;26;20362;-69
2024/04/15 07:11:10;;;;;;;2.95;0.77;;;;;;;13.13;36.40;100696.22;5388506;26;20009;-69
2024/04/15 07:13:36;;;;;;;10.25;1.30;;;;;;;13.22;34.92;100693.09;5381072;26;20015;-67
2024/04/15 07:16:01;;;;;;;2.83;0.98;;;;;;;15.15;31.97;100684.53;5379123;26;20003;-66
2024/04/15 07:18:27;;;;;;;6.95;1.15;;;;;;;15.53;31.11;100676.03;5351408;26;20019;-66
2024/04/15 07:20:53;;;;;;;6.65;0.65;;;;;;;14.91;32.54;100667.66;5332737;26;20023;-69
2024/04/15 07:23:18;;;;;;;4.40;0.68;;;;;;;15.25;31.33;100673.47;5329548;26;20681;-69
2024/04/15 07:25:44;;;;;;;6.25;1.00;;;;;;;15.71;31.09;100673.16;5344719;26;20003;-69
2024/04/15 07:28:10;;;;;;;7.07;0.88;;;;;;;15.65;31.01;100663.88;5347621;26;20694;-69
2024/04/15 07:30:35;;;;;;;3.35;0.60;;;;;;;15.44;31.13;100655.56;5340433;26;20048;-70
2024/04/15 07:33:01;;;;;;;1.75;0.65;;;;;;;14.58;32.56;100655.59;5356871;26;20018;-70
2024/04/15 07:35:31;;;;;;;6.70;1.27;;;;;;;17.83;28.76;100650.63;5339722;26;20007;-67
2024/04/15 07:37:58;;;;;;;3.92;0.85;;;;;;;16.77;29.93;100643.19;5359518;26;20087;-69
2024/04/15 07:40:25;;;;;;;4.55;1.20;;;;;;;15.77;30.77;100635.84;5339162;26;20058;-67
2024/04/15 07:42:50;;;;;;;7.75;1.88;;;;;;;16.11;30.87;100633.66;5364198;25;20413;-68
2024/04/15 07:45:16;;;;;;;6.47;1.40;;;;;;;17.64;28.55;100627.31;5385812;26;20006;-68
2024/04/15 07:47:41;;;;;;;3.78;0.93;;;;;;;16.87;30.58;100626.69;5383669;26;20019;-66
2024/04/15 07:50:07;;;;;;;10.23;1.95;;;;;;;17.07;29.35;100617.38;5398992;26;20176;-69
2024/04/15 07:52:32;;;;;;;4.20;1.23;;;;;;;16.39;31.04;100615.00;5369808;26;20002;-68
2024/04/15 07:54:58;;;;;;;4.90;1.45;;;;;;;16.34;30.93;100614.47;5397895;26;20010;-71
2024/04/15 07:57:23;;;;;;;4.95;1.25;;;;;;;17.36;30.14;100602.09;5389861;26;19999;-70
2024/04/15 07:59:49;;;;;;;8.02;1.15;;;;;;;17.31;29.72;100593.63;5375183;26;20206;-70
2024/04/15 08:02:14;;;;;;;4.38;1.42;;;;;;;14.46;33.44;100594.09;5389515;26;20002;-70
2024/04/15 08:04:40;;;;;;;9.98;1.70;;;;;;;13.18;36.61;100595.31;5390171;26;20062;-69
2024/04/15 08:07:05;;;;;;;6.68;2.13;;;;;;;14.91;34.45;100588.72;5388339;26;20041;-70
2024/04/15 08:09:31;;;;;;;8.02;1.48;;;;;;;13.84;35.27;100581.09;5345137;25;20415;-70
2024/04/15 08:11:57;;;;;;;8.18;2.08;;;;;;;14.62;35.15;100578.22;5356248;26;20457;-70
2024/04/15 08:14:22;;;;;;;10.15;1.85;;;;;;;15.03;34.41;100568.66;5346942;25;20081;-70
2024/04/15 08:16:48;;;;;;;5.90;1.92;;;;;;;16.26;32.49;100569.31;5359699;26;20019;-70
2024/04/15 08:19:13;;;;;;;4.05;1.40;;;;;;;17.16;30.99;100575.31;5370628;26;20093;-70
2024/04/15 08:21:39;;;;;;;5.70;1.52;;;;;;;18.78;28.53;100553.34;5328440;26;20873;-72
2024/04/15 08:24:06;;;;;;;8.73;1.58;;;;;;;16.20;30.91;100561.84;5354429;26;20007;-71
2024/04/15 08:26:32;;;;;;;8.68;1.92;;;;;;;14.84;33.73;100561.09;5348555;26;20075;-70
2024/04/15 08:29:00;;;;;;;11.27;2.08;;;;;;;12.48;37.37;100558.00;5374699;26;20829;-69
2024/04/15 08:31:26;;;;;;;5.57;2.00;;;;;;;13.26;36.42;100552.91;5386150;26;20006;-70
2024/04/15 08:33:51;;;;;;;8.00;1.73;;;;;;;13.32;36.06;100544.69;5390829;26;20188;-70
2024/04/15 08:36:17;;;;;;;5.55;1.17;;;;;;;13.37;36.36;100540.00;5390446;26;20047;-70
2024/04/15 08:38:44;;;;;;;5.70;1.00;;;;;;;10.49;39.78;100542.38;5386789;26;20307;-70
2024/04/15 08:41:25;;;;;;;8.32;1.67;;;;;;;9.54;40.30;100535.06;5362691;26;20070;-69
2024/04/15 08:43:55;;;;;;;5.38;1.60;;;;;;;10.44;39.11;100521.69;5367300;26;20006;-70
2024/04/15 08:46:24;;;;;;;7.60;1.00;;;;;;;9.39;41.62;100526.09;5399704;26;20007;-69
2024/04/15 08:48:50;;;;;;;5.38;1.08;;;;;;;10.63;39.44;100516.44;5412464;26;20754;-70
2024/04/15 08:51:18;;;;;;;7.85;1.15;;;;;;;10.56;39.84;100504.59;5413796;26;20030;-69
2024/04/15 08:53:44;;;;;;;3.90;0.90;;;;;;;10.86;39.41;100498.88;5404891;26;20009;-70
2024/04/15 08:56:10;;;;;;;3.80;0.82;;;;;;;11.62;37.94;100482.06;5413385;26;20010;-69
2024/04/15 08:58:37;;;;;;;4.47;0.75;;;;;;;11.41;37.77;100478.75;5397722;26;20059;-70
2024/04/15 09:01:05;;;;;;;4.00;0.90;;;;;;;10.73;39.76;100475.06;5406284;26;20910;-70
2024/04/15 09:03:31;;;;;;;5.80;1.50;;;;;;;11.12;38.12;100463.63;5393042;26;20021;-69
2024/04/15 09:05:56;;;;;;;6.68;1.65;;;;;;;10.82;38.95;100469.44;5401508;26;21308;-69
2024/04/15 09:08:22;;;;;;;6.22;1.13;;;;;;;10.10;40.26;100463.13;5393669;26;20015;-71
2024/04/15 09:10:48;;;;;;;6.05;1.48;;;;;;;9.71;40.20;100461.28;5374166;26;20580;-69
2024/04/15 09:13:15;;;;;;;3.67;0.60;;;;;;;10.15;39.85;100453.31;5411472;26;20017;-69
2024/04/15 09:15:40;;;;;;;4.95;1.33;;;;;;;10.53;38.59;100453.31;5392136;26;20012;-69
2024/04/15 09:18:06;;;;;;;10.73;0.90;;;;;;;10.90;38.15;100441.13;5408200;26;20221;-69
2024/04/15 09:20:32;;;;;;;7.10;1.40;;;;;;;11.86;36.99;100434.63;5398867;26;20013;-70
2024/04/15 09:23:02;;;;;;;8.18;0.98;;;;;;;11.75;36.53;100423.81;5411439;26;20007;-70
2024/04/15 09:25:28;;;;;;;3.60;0.95;;;;;;;12.35;35.52;100423.28;5410871;26;20006;-70
2024/04/15 09:27:56;;;;;;;10.65;2.95;;;;;;;12.01;36.20;100414.63;5386474;26;23240;-70
2024/04/15 09:30:21;;;;;;;3.65;1.38;;;;;;;11.94;36.52;100414.13;5427968;26;20003;-70
2024/04/15 09:32:47;;;;;;;4.85;1.42;;;;;;;12.95;34.21;100399.00;5405637;25;20030;-69
2024/04/15 09:35:12;;;;;;;6.47;1.20;;;;;;;12.52;34.53;100404.03;5410997;26;20431;-70
2024/04/15 09:37:38;;;;;;;6.57;1.27;;;;;;;11.63;35.63;100401.75;5382927;26;20014;-68
2024/04/15 09:40:07;;;;;;;2.75;0.77;;;;;;;11.24;35.85;100388.03;5363414;26;20448;-69
2024/04/15 09:42:34;;;;;;;3.78;0.82;;;;;;;10.58;35.96;100387.78;5368201;26;20042;-69
2024/04/15 09:45:00;;;;;;;12.93;1.95;;;;;;;10.36;37.74;100387.94;5335536;26;20086;-70
2024/04/15 09:47:26;;;;;;;7.85;1.98;;;;;;;10.25;38.07;100385.81;5334322;26;20036;-69
2024/04/15 09:49:52;;;;;;;5.93;1.48;;;;;;;9.67;39.04;100371.00;5364615;25;20004;-70
2024/04/15 09:52:29;;;;;;;6.35;2.50;;;;;;;11.31;36.72;100359.78;5347701;26;20044;-69
2024/04/15 09:55:06;;;;;;;3.25;1.45;;;;;;;11.00;36.33;100345.63;5329418;26;20016;-69
2024/04/15 09:57:36;;;;;;;9.20;2.10;;;;;;;11.39;36.56;100341.91;5313914;26;20000;-69
2024/04/15 10:00:03;;;;;;;8.00;1.95;;;;;;;11.38;36.91;100342.84;5324734;26;20019;-69
2024/04/15 10:02:55;;;;;;;7.57;2.45;;;;;;;12.84;34.90;100336.66;5320252;26;20617;-69
2024/04/15 10:05:22;;;;;;;3.92;1.35;;;;;;;12.59;34.21;100327.56;5316762;26;20843;-69
2024/04/15 10:07:51;;;;;;;7.50;2.20;;;;;;;12.16;35.23;100321.28;5342703;26;20018;-69
2024/04/15 10:10:19;;;;;;;7.95;1.77;;;;;;;13.20;34.84;100311.81;5365925;26;21983;-68
2024/04/15 10:12:45;;;;;;;4.75;1.33;;;;;;;13.18;33.21;100284.81;5356992;26;20025;-69
2024/04/15 10:15:12;;;;;;;6.75;1.42;;;;;;;11.77;34.67;100312.00;5373664;26;19999;-69
2024/04/15 10:17:37;;;;;;;3.30;1.45;;;;;;;11.88;34.35;100289.56;5344031;26;20551;-69
2024/04/15 10:20:10;;;;;;;6.97;2.03;;;;;;;12.01;34.87;100289.75;5358368;26;20022;-69
2024/04/15 10:22:39;;;;;;;11.45;1.45;;;;;;;11.58;34.96;100291.22;5345726;26;20013;-70
2024/04/15 10:25:07;;;;;;;5.35;1.05;;;;;;;11.68;35.85;100284.56;5357575;26;20011;-69
2024/04/15 10:27:33;;;;;;;6.63;1.98;;;;;;;10.73;37.16;100284.25;5349480;26;20023;-69
2024/04/15 10:29:58;;;;;;;7.93;2.28;;;;;;;10.39;38.41;100272.84;5346934;26;20004;-69
2024/04/15 10:32:25;;;;;;;5.50;2.25;;;;;;;10.99;38.81;100260.25;5331853;26;20022;-70
2024/04/15 10:34:53;;;;;;;7.88;2.08;;;;;;;11.02;37.25;100252.28;5370853;26;20003;-70
2024/04/15 10:37:28;;;;;;;5.55;2.05;;;;;;;10.77;37.42;100246.56;5394723;26;20033;-70
2024/04/15 10:40:01;;;;;;;11.15;2.42;;;;;;;10.72;38.56;100232.88;5351152;26;20008;-69
2024/04/15 10:42:27;;;;;;;5.28;2.80;;;;;;;9.93;39.19;100238.50;5361303;26;20022;-70
2024/04/15 10:44:54;;;;;;;7.00;2.80;;;;;;;10.66;37.12;100228.84;5348057;26;19991;-69
2024/04/15 10:47:21;;;;;;;9.35;2.35;;;;;;;10.24;37.69;100227.44;5361843;26;20045;-69
2024/04/15 10:49:46;;;;;;;6.05;2.13;;;;;;;10.91;36.83;100218.00;5341634;26;20018;-70
2024/04/15 10:52:11;;;;;;;9.60;3.20;;;;;;;9.14;40.01;100215.09;5357631;26;20007;-70
2024/04/15 10:54:37;;;;;;;8.30;2.42;;;;;;;10.79;38.06;100203.75;5344044;26;20709;-69
2024/04/15 10:57:02;;;;;;;5.10;2.22;;;;;;;10.72;35.62;100201.53;5319821;26;20472;-70
2024/04/15 10:59:28;;;;;;;4.93;2.03;;;;;;;10.87;36.29;100187.69;5353190;26;20003;-69
2024/04/15 11:01:56;;;;;;;4.75;2.90;;;;;;;11.59;35.04;100172.50;5392482;26;20014;-70
2024/04/15 11:04:21;;;;;;;6.30;2.90;;;;;;;11.71;35.39;100177.06;5395698;26;20011;-69
2024/04/15 11:06:48;;;;;;;8.68;3.30;;;;;;;10.72;37.08;100172.78;5378679;26;20003;-70
2024/04/15 11:09:14;;;;;;;10.38;3.33;;;;;;;11.13;36.43;100165.41;5394951;25;20006;-70
2024/04/15 11:11:41;;;;;;;9.90;3.15;;;;;;;11.12;36.11;100162.88;5375157;26;20083;-69
2024/04/15 11:14:11;;;;;;;5.85;2.88;;;;;;;10.60;37.71;100151.56;5396336;26;20015;-70
2024/04/15 11:16:43;;;;;;;8.77;3.42;;;;;;;10.08;38.56;100135.94;5380023;26;20014;-70
2024/04/15 11:19:08;;;;;;;9.80;3.28;;;;;;;10.69;38.25;100128.50;5393042;26;20128;-70
2024/04/15 11:21:34;;;;;;;9.02;4.22;;;;;;;10.69;37.84;100128.50;5347993;26;20746;-69
2024/04/15 11:24:00;;;;;;;10.27;4.45;;;;;;;9.99;38.26;100112.88;5392546;26;20358;-69
2024/04/15 11:26:26;;;;;;;12.75;4.63;;;;;;;10.60;37.98;100103.69;5386480;26;20583;-69
2024/04/15 11:28:52;;;;;;;7.07;3.70;;;;;;;10.98;37.19;100103.47;5372927;26;20022;-69
2024/04/15 11:31:17;;;;;;;6.53;3.85;;;;;;;10.94;37.54;100091.47;5410731;26;20632;-68
2024/04/15 11:33:43;;;;;;;7.78;4.05;;;;;;;9.85;38.78;100091.84;5395177;26;20585;-70
2024/04/15 11:36:14;;;;;;;9.32;4.43;;;;;;;10.50;38.69;100073.75;5389299;26;19999;-69
2024/04/15 11:38:40;;;;;;;6.10;2.40;;;;;;;9.89;38.99;100062.06;5381103;25;20400;-69
2024/04/15 11:41:06;;;;;;;8.15;3.45;;;;;;;10.36;37.41;100058.78;5383033;26;20014;-69